sensor_id;sensor_type;location;lat;lon;timestamp;P1;durP1;ratioP1;P2;durP2;ratioP2
47413;SDS011;33163;0.000;0.000;2023-03-01T00:01:25;4.13;;;2.50;;
47413;SDS011;33163;0.000;0.000;2023-03-01T00:03:53;2.83;;;2.22;;
47413;SDS011;33163;0.000;0.000;2023-03-01T00:06:21;3.58;;;2.20;;
47413;SDS011;33163;0.000;0.000;2023-03-01T00:08:49;4.60;;;2.42;;
47413;SDS011;33163;0.000;0.000;2023-03-01T00:11:16;3.22;;;2.00;;
47413;SDS011;33163;0.000;0.000;2023-03-01T00:13:45;6.82;;;2.28;;
47413;SDS011;33163;0.000;0.000;2023-03-01T00:16:13;3.28;;;1.90;;
47413;SDS011;33163;0.000;0.000;2023-03-01T00:18:43;2.50;;;2.00;;
47413;SDS011;33163;0.000;0.000;2023-03-01T00:21:10;2.85;;;2.10;;
47413;SDS011;33163;0.000;0.000;2023-03-01T00:23:38;3.55;;;2.10;;
47413;SDS011;33163;0.000;0.000;2023-03-01T00:26:06;3.53;;;2.10;;
47413;SDS011;33163;0.000;0.000;2023-03-01T00:28:33;4.18;;;1.85;;
47413;SDS011;33163;0.000;0.000;2023-03-01T00:31:02;4.43;;;2.30;;
47413;SDS011;33163;0.000;0.000;2023-03-01T00:33:29;3.88;;;2.20;;
47413;SDS011;33163;0.000;0.000;2023-03-01T00:35:58;3.83;;;2.20;;
47413;SDS011;33163;0.000;0.000;2023-03-01T00:38:26;3.58;;;2.10;;
47413;SDS011;33163;0.000;0.000;2023-03-01T00:40:53;3.42;;;2.17;;
47413;SDS011;33163;0.000;0.000;2023-03-01T00:43:20;4.30;;;2.10;;
47413;SDS011;33163;0.000;0.000;2023-03-01T00:45:47;2.85;;;2.08;;
47413;SDS011;33163;0.000;0.000;2023-03-01T00:48:14;3.10;;;2.10;;
47413;SDS011;33163;0.000;0.000;2023-03-01T00:50:40;3.63;;;1.88;;
47413;SDS011;33163;0.000;0.000;2023-03-01T00:53:09;3.95;;;2.50;;
47413;SDS011;33163;0.000;0.000;2023-03-01T00:55:35;5.28;;;2.17;;
47413;SDS011;33163;0.000;0.000;2023-03-01T00:58:02;2.80;;;2.10;;
47413;SDS011;33163;0.000;0.000;2023-03-01T01:00:29;2.75;;;2.00;;
47413;SDS011;33163;0.000;0.000;2023-03-01T01:02:56;3.13;;;2.10;;
47413;SDS011;33163;0.000;0.000;2023-03-01T01:05:22;2.92;;;2.22;;
47413;SDS011;33163;0.000;0.000;2023-03-01T01:07:49;3.10;;;1.98;;
47413;SDS011;33163;0.000;0.000;2023-03-01T01:10:17;4.00;;;1.80;;
47413;SDS011;33163;0.000;0.000;2023-03-01T01:12:45;2.65;;;1.98;;
47413;SDS011;33163;0.000;0.000;2023-03-01T01:15:12;3.80;;;2.03;;
47413;SDS011;33163;0.000;0.000;2023-03-01T01:17:41;3.10;;;2.38;;
47413;SDS011;33163;0.000;0.000;2023-03-01T01:20:09;4.40;;;2.55;;
47413;SDS011;33163;0.000;0.000;2023-03-01T01:22:37;3.67;;;2.30;;
47413;SDS011;33163;0.000;0.000;2023-03-01T01:25:03;3.35;;;2.03;;
47413;SDS011;33163;0.000;0.000;2023-03-01T01:27:32;2.53;;;1.90;;
47413;SDS011;33163;0.000;0.000;2023-03-01T01:29:59;2.63;;;2.22;;
47413;SDS011;33163;0.000;0.000;2023-03-01T01:32:26;2.70;;;2.00;;
47413;SDS011;33163;0.000;0.000;2023-03-01T01:34:52;2.05;;;1.80;;
47413;SDS011;33163;0.000;0.000;2023-03-01T01:37:19;2.28;;;2.05;;
47413;SDS011;33163;0.000;0.000;2023-03-01T01:39:47;5.00;;;2.38;;
47413;SDS011;33163;0.000;0.000;2023-03-01T01:42:14;2.53;;;1.70;;
47413;SDS011;33163;0.000;0.000;2023-03-01T01:44:44;2.78;;;2.03;;
47413;SDS011;33163;0.000;0.000;2023-03-01T01:47:13;2.75;;;2.20;;
47413;SDS011;33163;0.000;0.000;2023-03-01T01:49:43;3.50;;;2.40;;
47413;SDS011;33163;0.000;0.000;2023-03-01T01:52:14;3.38;;;2.30;;
47413;SDS011;33163;0.000;0.000;2023-03-01T01:54:46;3.85;;;2.03;;
47413;SDS011;33163;0.000;0.000;2023-03-01T01:57:18;3.92;;;2.25;;
47413;SDS011;33163;0.000;0.000;2023-03-01T01:59:50;3.05;;;2.38;;
47413;SDS011;33163;0.000;0.000;2023-03-01T02:02:20;2.97;;;1.85;;
47413;SDS011;33163;0.000;0.000;2023-03-01T02:04:47;2.33;;;1.70;;
47413;SDS011;33163;0.000;0.000;2023-03-01T02:07:16;3.47;;;2.20;;
47413;SDS011;33163;0.000;0.000;2023-03-01T02:09:46;3.72;;;2.47;;
47413;SDS011;33163;0.000;0.000;2023-03-01T02:12:15;4.45;;;2.20;;
47413;SDS011;33163;0.000;0.000;2023-03-01T02:14:44;3.17;;;2.00;;
47413;SDS011;33163;0.000;0.000;2023-03-01T02:17:13;3.17;;;2.67;;
47413;SDS011;33163;0.000;0.000;2023-03-01T02:19:50;2.97;;;2.42;;
47413;SDS011;33163;0.000;0.000;2023-03-01T02:22:25;4.60;;;2.30;;
47413;SDS011;33163;0.000;0.000;2023-03-01T02:24:58;4.68;;;2.30;;
47413;SDS011;33163;0.000;0.000;2023-03-01T02:27:35;4.53;;;2.50;;
47413;SDS011;33163;0.000;0.000;2023-03-01T02:30:08;3.80;;;2.40;;
47413;SDS011;33163;0.000;0.000;2023-03-01T02:32:37;3.05;;;2.45;;
47413;SDS011;33163;0.000;0.000;2023-03-01T02:35:06;3.05;;;2.17;;
47413;SDS011;33163;0.000;0.000;2023-03-01T02:37:36;3.78;;;2.33;;
47413;SDS011;33163;0.000;0.000;2023-03-01T02:40:05;3.20;;;2.53;;
47413;SDS011;33163;0.000;0.000;2023-03-01T02:42:36;3.78;;;2.08;;
47413;SDS011;33163;0.000;0.000;2023-03-01T02:45:11;3.15;;;2.28;;
47413;SDS011;33163;0.000;0.000;2023-03-01T02:47:38;2.22;;;1.77;;
47413;SDS011;33163;0.000;0.000;2023-03-01T02:50:10;4.68;;;2.35;;
47413;SDS011;33163;0.000;0.000;2023-03-01T02:52:43;4.25;;;2.30;;
47413;SDS011;33163;0.000;0.000;2023-03-01T02:55:14;2.40;;;2.08;;
47413;SDS011;33163;0.000;0.000;2023-03-01T02:57:43;5.32;;;2.20;;
47413;SDS011;33163;0.000;0.000;2023-03-01T03:00:14;3.05;;;2.35;;
47413;SDS011;33163;0.000;0.000;2023-03-01T03:02:45;5.28;;;2.10;;
47413;SDS011;33163;0.000;0.000;2023-03-01T03:05:12;5.85;;;2.50;;
47413;SDS011;33163;0.000;0.000;2023-03-01T03:07:42;2.72;;;2.15;;
47413;SDS011;33163;0.000;0.000;2023-03-01T03:10:12;2.70;;;2.20;;
47413;SDS011;33163;0.000;0.000;2023-03-01T03:12:40;3.10;;;2.40;;
47413;SDS011;33163;0.000;0.000;2023-03-01T03:15:10;2.47;;;1.95;;
47413;SDS011;33163;0.000;0.000;2023-03-01T03:17:39;4.53;;;2.28;;
47413;SDS011;33163;0.000;0.000;2023-03-01T03:20:08;5.00;;;2.50;;
47413;SDS011;33163;0.000;0.000;2023-03-01T03:22:36;3.47;;;2.20;;
47413;SDS011;33163;0.000;0.000;2023-03-01T03:25:04;2.80;;;2.22;;
47413;SDS011;33163;0.000;0.000;2023-03-01T03:27:35;3.58;;;2.25;;
47413;SDS011;33163;0.000;0.000;2023-03-01T03:30:03;2.58;;;2.15;;
47413;SDS011;33163;0.000;0.000;2023-03-01T03:32:35;3.25;;;2.20;;
47413;SDS011;33163;0.000;0.000;2023-03-01T03:35:02;5.07;;;2.28;;
47413;SDS011;33163;0.000;0.000;2023-03-01T03:37:33;3.17;;;2.20;;
47413;SDS011;33163;0.000;0.000;2023-03-01T03:40:18;3.25;;;2.58;;
47413;SDS011;33163;0.000;0.000;2023-03-01T03:42:45;3.28;;;2.42;;
47413;SDS011;33163;0.000;0.000;2023-03-01T03:45:13;3.75;;;2.17;;
47413;SDS011;33163;0.000;0.000;2023-03-01T03:47:41;2.25;;;1.95;;
47413;SDS011;33163;0.000;0.000;2023-03-01T03:50:08;3.58;;;2.40;;
47413;SDS011;33163;0.000;0.000;2023-03-01T03:52:36;4.57;;;2.42;;
47413;SDS011;33163;0.000;0.000;2023-03-01T03:55:03;2.92;;;2.33;;
47413;SDS011;33163;0.000;0.000;2023-03-01T03:57:34;2.40;;;2.15;;
47413;SDS011;33163;0.000;0.000;2023-03-01T04:00:01;2.95;;;2.17;;
47413;SDS011;33163;0.000;0.000;2023-03-01T04:02:29;3.38;;;2.38;;
47413;SDS011;33163;0.000;0.000;2023-03-01T04:04:58;4.57;;;2.67;;
47413;SDS011;33163;0.000;0.000;2023-03-01T04:07:24;3.33;;;2.33;;
47413;SDS011;33163;0.000;0.000;2023-03-01T04:09:51;3.20;;;2.40;;
47413;SDS011;33163;0.000;0.000;2023-03-01T04:12:18;2.60;;;2.30;;
47413;SDS011;33163;0.000;0.000;2023-03-01T04:14:48;6.45;;;2.42;;
47413;SDS011;33163;0.000;0.000;2023-03-01T04:17:15;5.30;;;2.20;;
47413;SDS011;33163;0.000;0.000;2023-03-01T04:19:41;3.45;;;2.35;;
47413;SDS011;33163;0.000;0.000;2023-03-01T04:22:10;2.72;;;2.20;;
47413;SDS011;33163;0.000;0.000;2023-03-01T04:24:42;4.70;;;2.78;;
47413;SDS011;33163;0.000;0.000;2023-03-01T04:27:09;5.30;;;2.47;;
47413;SDS011;33163;0.000;0.000;2023-03-01T04:29:36;2.10;;;1.90;;
47413;SDS011;33163;0.000;0.000;2023-03-01T04:32:03;3.50;;;2.13;;
47413;SDS011;33163;0.000;0.000;2023-03-01T04:34:30;3.30;;;2.05;;
47413;SDS011;33163;0.000;0.000;2023-03-01T04:36:56;4.03;;;1.90;;
47413;SDS011;33163;0.000;0.000;2023-03-01T04:39:25;3.35;;;2.67;;
47413;SDS011;33163;0.000;0.000;2023-03-01T04:41:51;3.67;;;1.90;;
47413;SDS011;33163;0.000;0.000;2023-03-01T04:44:18;4.07;;;2.65;;
47413;SDS011;33163;0.000;0.000;2023-03-01T04:46:45;4.25;;;2.45;;
47413;SDS011;33163;0.000;0.000;2023-03-01T04:49:14;2.83;;;2.20;;
47413;SDS011;33163;0.000;0.000;2023-03-01T04:51:41;4.75;;;2.15;;
47413;SDS011;33163;0.000;0.000;2023-03-01T04:54:11;3.65;;;2.13;;
47413;SDS011;33163;0.000;0.000;2023-03-01T04:56:39;5.05;;;2.35;;
47413;SDS011;33163;0.000;0.000;2023-03-01T04:59:06;4.30;;;2.35;;
47413;SDS011;33163;0.000;0.000;2023-03-01T05:01:35;4.90;;;2.70;;
47413;SDS011;33163;0.000;0.000;2023-03-01T05:04:02;3.13;;;2.80;;
47413;SDS011;33163;0.000;0.000;2023-03-01T05:06:30;4.38;;;2.63;;
47413;SDS011;33163;0.000;0.000;2023-03-01T05:08:57;2.40;;;2.17;;
47413;SDS011;33163;0.000;0.000;2023-03-01T05:11:24;3.75;;;3.05;;
47413;SDS011;33163;0.000;0.000;2023-03-01T05:13:54;3.90;;;2.70;;
47413;SDS011;33163;0.000;0.000;2023-03-01T05:16:21;2.88;;;2.28;;
47413;SDS011;33163;0.000;0.000;2023-03-01T05:18:47;3.22;;;2.33;;
47413;SDS011;33163;0.000;0.000;2023-03-01T05:21:15;2.80;;;2.35;;
47413;SDS011;33163;0.000;0.000;2023-03-01T05:23:42;3.33;;;2.40;;
47413;SDS011;33163;0.000;0.000;2023-03-01T05:26:09;4.25;;;3.15;;
47413;SDS011;33163;0.000;0.000;2023-03-01T05:28:37;6.72;;;3.17;;
47413;SDS011;33163;0.000;0.000;2023-03-01T05:31:06;4.72;;;3.20;;
47413;SDS011;33163;0.000;0.000;2023-03-01T05:33:35;3.75;;;2.70;;
47413;SDS011;33163;0.000;0.000;2023-03-01T05:36:02;3.25;;;2.63;;
47413;SDS011;33163;0.000;0.000;2023-03-01T05:38:29;3.60;;;2.67;;
47413;SDS011;33163;0.000;0.000;2023-03-01T05:40:56;3.15;;;2.65;;
47413;SDS011;33163;0.000;0.000;2023-03-01T05:43:23;4.00;;;2.83;;
47413;SDS011;33163;0.000;0.000;2023-03-01T05:45:50;2.83;;;2.58;;
47413;SDS011;33163;0.000;0.000;2023-03-01T05:48:18;3.10;;;2.80;;
47413;SDS011;33163;0.000;0.000;2023-03-01T05:50:45;2.65;;;2.20;;
47413;SDS011;33163;0.000;0.000;2023-03-01T05:53:13;3.28;;;2.60;;
47413;SDS011;33163;0.000;0.000;2023-03-01T05:55:41;3.15;;;2.55;;
47413;SDS011;33163;0.000;0.000;2023-03-01T05:58:10;3.08;;;2.10;;
47413;SDS011;33163;0.000;0.000;2023-03-01T06:00:39;3.22;;;2.20;;
47413;SDS011;33163;0.000;0.000;2023-03-01T06:03:06;3.15;;;2.85;;
47413;SDS011;33163;0.000;0.000;2023-03-01T06:05:37;3.08;;;2.33;;
47413;SDS011;33163;0.000;0.000;2023-03-01T06:08:04;3.17;;;2.38;;
47413;SDS011;33163;0.000;0.000;2023-03-01T06:10:31;2.47;;;2.20;;
47413;SDS011;33163;0.000;0.000;2023-03-01T06:12:58;3.30;;;2.42;;
47413;SDS011;33163;0.000;0.000;2023-03-01T06:15:25;2.53;;;2.33;;
47413;SDS011;33163;0.000;0.000;2023-03-01T06:17:53;2.78;;;1.95;;
47413;SDS011;33163;0.000;0.000;2023-03-01T06:20:22;2.45;;;2.00;;
47413;SDS011;33163;0.000;0.000;2023-03-01T06:22:51;3.13;;;2.33;;
47413;SDS011;33163;0.000;0.000;2023-03-01T06:25:20;2.50;;;2.30;;
47413;SDS011;33163;0.000;0.000;2023-03-01T06:27:49;2.40;;;2.20;;
47413;SDS011;33163;0.000;0.000;2023-03-01T06:30:17;2.13;;;1.92;;
47413;SDS011;33163;0.000;0.000;2023-03-01T06:32:46;2.10;;;1.90;;
47413;SDS011;33163;0.000;0.000;2023-03-01T06:35:13;2.38;;;2.08;;
47413;SDS011;33163;0.000;0.000;2023-03-01T06:37:42;2.83;;;1.95;;
47413;SDS011;33163;0.000;0.000;2023-03-01T06:40:11;3.65;;;2.08;;
47413;SDS011;33163;0.000;0.000;2023-03-01T06:42:39;1.60;;;1.50;;
47413;SDS011;33163;0.000;0.000;2023-03-01T06:45:08;2.25;;;2.05;;
47413;SDS011;33163;0.000;0.000;2023-03-01T06:47:35;2.60;;;2.13;;
47413;SDS011;33163;0.000;0.000;2023-03-01T06:50:02;2.85;;;2.00;;
47413;SDS011;33163;0.000;0.000;2023-03-01T06:52:30;2.38;;;2.00;;
47413;SDS011;33163;0.000;0.000;2023-03-01T06:54:56;2.70;;;1.98;;
47413;SDS011;33163;0.000;0.000;2023-03-01T06:57:24;2.40;;;2.20;;
47413;SDS011;33163;0.000;0.000;2023-03-01T06:59:52;2.40;;;2.13;;
47413;SDS011;33163;0.000;0.000;2023-03-01T07:02:19;3.15;;;1.83;;
47413;SDS011;33163;0.000;0.000;2023-03-01T07:04:45;2.63;;;2.10;;
47413;SDS011;33163;0.000;0.000;2023-03-01T07:07:12;2.65;;;1.95;;
47413;SDS011;33163;0.000;0.000;2023-03-01T07:09:39;2.33;;;2.13;;
47413;SDS011;33163;0.000;0.000;2023-03-01T07:12:06;3.05;;;2.30;;
47413;SDS011;33163;0.000;0.000;2023-03-01T07:14:34;1.88;;;1.70;;
47413;SDS011;33163;0.000;0.000;2023-03-01T07:17:01;2.70;;;1.92;;
47413;SDS011;33163;0.000;0.000;2023-03-01T07:19:28;4.22;;;1.98;;
47413;SDS011;33163;0.000;0.000;2023-03-01T07:21:55;2.17;;;1.73;;
47413;SDS011;33163;0.000;0.000;2023-03-01T07:24:21;1.75;;;1.65;;
47413;SDS011;33163;0.000;0.000;2023-03-01T07:26:49;2.15;;;1.95;;
47413;SDS011;33163;0.000;0.000;2023-03-01T07:29:16;3.90;;;2.10;;
47413;SDS011;33163;0.000;0.000;2023-03-01T07:31:44;3.60;;;2.03;;
47413;SDS011;33163;0.000;0.000;2023-03-01T07:34:11;3.70;;;2.67;;
47413;SDS011;33163;0.000;0.000;2023-03-01T07:36:38;11.15;;;2.50;;
47413;SDS011;33163;0.000;0.000;2023-03-01T07:39:08;4.07;;;2.25;;
47413;SDS011;33163;0.000;0.000;2023-03-01T07:41:35;3.25;;;2.47;;
47413;SDS011;33163;0.000;0.000;2023-03-01T07:44:02;4.68;;;2.38;;
47413;SDS011;33163;0.000;0.000;2023-03-01T07:46:29;3.63;;;2.50;;
47413;SDS011;33163;0.000;0.000;2023-03-01T07:48:57;5.90;;;2.15;;
47413;SDS011;33163;0.000;0.000;2023-03-01T07:51:24;3.47;;;2.70;;
47413;SDS011;33163;0.000;0.000;2023-03-01T07:53:50;2.72;;;2.17;;
47413;SDS011;33163;0.000;0.000;2023-03-01T07:56:17;2.80;;;2.50;;
47413;SDS011;33163;0.000;0.000;2023-03-01T07:58:45;5.07;;;2.63;;
47413;SDS011;33163;0.000;0.000;2023-03-01T08:01:12;3.97;;;2.83;;
47413;SDS011;33163;0.000;0.000;2023-03-01T08:03:40;2.42;;;2.22;;
47413;SDS011;33163;0.000;0.000;2023-03-01T08:06:10;3.15;;;2.15;;
47413;SDS011;33163;0.000;0.000;2023-03-01T08:08:38;2.75;;;2.40;;
47413;SDS011;33163;0.000;0.000;2023-03-01T08:11:06;2.80;;;2.40;;
47413;SDS011;33163;0.000;0.000;2023-03-01T08:13:35;3.65;;;2.80;;
47413;SDS011;33163;0.000;0.000;2023-03-01T08:16:03;4.80;;;2.58;;
47413;SDS011;33163;0.000;0.000;2023-03-01T08:18:31;2.53;;;2.22;;
47413;SDS011;33163;0.000;0.000;2023-03-01T08:21:01;5.93;;;2.22;;
47413;SDS011;33163;0.000;0.000;2023-03-01T08:23:30;3.45;;;2.50;;
47413;SDS011;33163;0.000;0.000;2023-03-01T08:26:02;3.47;;;2.67;;
47413;SDS011;33163;0.000;0.000;2023-03-01T08:28:31;3.42;;;2.67;;
47413;SDS011;33163;0.000;0.000;2023-03-01T08:30:57;3.45;;;2.47;;
47413;SDS011;33163;0.000;0.000;2023-03-01T08:33:24;3.28;;;2.50;;
47413;SDS011;33163;0.000;0.000;2023-03-01T08:35:51;4.68;;;2.70;;
47413;SDS011;33163;0.000;0.000;2023-03-01T08:38:18;3.53;;;2.65;;
47413;SDS011;33163;0.000;0.000;2023-03-01T08:40:46;3.28;;;2.33;;
47413;SDS011;33163;0.000;0.000;2023-03-01T08:43:12;5.55;;;2.70;;
47413;SDS011;33163;0.000;0.000;2023-03-01T08:45:39;3.75;;;2.65;;
47413;SDS011;33163;0.000;0.000;2023-03-01T08:48:06;2.95;;;2.00;;
47413;SDS011;33163;0.000;0.000;2023-03-01T08:50:33;3.10;;;2.20;;
47413;SDS011;33163;0.000;0.000;2023-03-01T08:52:59;5.07;;;2.10;;
47413;SDS011;33163;0.000;0.000;2023-03-01T08:55:26;4.95;;;2.20;;
47413;SDS011;33163;0.000;0.000;2023-03-01T08:57:54;2.95;;;2.13;;
47413;SDS011;33163;0.000;0.000;2023-03-01T09:00:24;3.28;;;1.85;;
47413;SDS011;33163;0.000;0.000;2023-03-01T09:02:51;4.43;;;2.03;;
47413;SDS011;33163;0.000;0.000;2023-03-01T09:05:17;3.55;;;1.95;;
47413;SDS011;33163;0.000;0.000;2023-03-01T09:07:44;2.28;;;2.08;;
47413;SDS011;33163;0.000;0.000;2023-03-01T09:10:11;5.38;;;2.05;;
47413;SDS011;33163;0.000;0.000;2023-03-01T09:12:37;2.45;;;2.03;;
47413;SDS011;33163;0.000;0.000;2023-03-01T09:15:06;2.53;;;1.77;;
47413;SDS011;33163;0.000;0.000;2023-03-01T09:17:34;2.58;;;2.15;;
47413;SDS011;33163;0.000;0.000;2023-03-01T09:20:01;3.05;;;2.30;;
47413;SDS011;33163;0.000;0.000;2023-03-01T09:22:30;3.97;;;2.17;;
47413;SDS011;33163;0.000;0.000;2023-03-01T09:24:58;12.00;;;2.00;;
47413;SDS011;33163;0.000;0.000;2023-03-01T09:27:26;5.32;;;2.42;;
47413;SDS011;33163;0.000;0.000;2023-03-01T09:29:53;2.58;;;1.73;;
47413;SDS011;33163;0.000;0.000;2023-03-01T09:32:22;5.70;;;1.80;;
47413;SDS011;33163;0.000;0.000;2023-03-01T09:34:49;3.45;;;1.85;;
47413;SDS011;33163;0.000;0.000;2023-03-01T09:37:29;3.28;;;1.95;;
47413;SDS011;33163;0.000;0.000;2023-03-01T09:39:57;3.67;;;1.85;;
47413;SDS011;33163;0.000;0.000;2023-03-01T09:42:24;2.97;;;1.70;;
47413;SDS011;33163;0.000;0.000;2023-03-01T09:44:52;2.47;;;1.70;;
47413;SDS011;33163;0.000;0.000;2023-03-01T09:47:25;4.35;;;1.70;;
47413;SDS011;33163;0.000;0.000;2023-03-01T09:49:58;6.45;;;1.92;;
47413;SDS011;33163;0.000;0.000;2023-03-01T09:52:33;2.22;;;1.42;;
47413;SDS011;33163;0.000;0.000;2023-03-01T09:55:08;5.65;;;1.50;;
47413;SDS011;33163;0.000;0.000;2023-03-01T09:57:39;3.65;;;1.88;;
47413;SDS011;33163;0.000;0.000;2023-03-01T10:00:13;6.20;;;1.80;;
47413;SDS011;33163;0.000;0.000;2023-03-01T10:02:55;3.38;;;1.70;;
47413;SDS011;33163;0.000;0.000;2023-03-01T10:05:30;4.40;;;1.67;;
47413;SDS011;33163;0.000;0.000;2023-03-01T10:11:13;12.75;;;1.77;;
47413;SDS011;33163;0.000;0.000;2023-03-01T10:13:46;3.92;;;1.40;;
47413;SDS011;33163;0.000;0.000;2023-03-01T10:16:20;3.72;;;1.60;;
47413;SDS011;33163;0.000;0.000;2023-03-01T10:18:53;4.18;;;1.40;;
47413;SDS011;33163;0.000;0.000;2023-03-01T10:21:25;5.00;;;1.60;;
47413;SDS011;33163;0.000;0.000;2023-03-01T10:24:05;14.55;;;1.42;;
47413;SDS011;33163;0.000;0.000;2023-03-01T10:26:39;6.78;;;1.45;;
47413;SDS011;33163;0.000;0.000;2023-03-01T10:29:12;4.63;;;1.35;;
47413;SDS011;33163;0.000;0.000;2023-03-01T10:31:41;3.80;;;1.13;;
47413;SDS011;33163;0.000;0.000;2023-03-01T10:34:12;4.75;;;1.40;;
47413;SDS011;33163;0.000;0.000;2023-03-01T10:36:41;3.58;;;1.40;;
47413;SDS011;33163;0.000;0.000;2023-03-01T10:39:15;4.15;;;1.23;;
47413;SDS011;33163;0.000;0.000;2023-03-01T10:41:52;2.22;;;1.40;;
47413;SDS011;33163;0.000;0.000;2023-03-01T10:44:36;4.35;;;1.77;;
47413;SDS011;33163;0.000;0.000;2023-03-01T10:47:12;3.70;;;1.60;;
47413;SDS011;33163;0.000;0.000;2023-03-01T10:49:51;7.15;;;1.35;;
47413;SDS011;33163;0.000;0.000;2023-03-01T10:52:21;4.53;;;1.70;;
47413;SDS011;33163;0.000;0.000;2023-03-01T10:54:51;3.58;;;1.45;;
47413;SDS011;33163;0.000;0.000;2023-03-01T10:57:30;4.22;;;1.40;;
47413;SDS011;33163;0.000;0.000;2023-03-01T11:00:10;3.55;;;1.50;;
47413;SDS011;33163;0.000;0.000;2023-03-01T11:03:00;4.35;;;1.42;;
47413;SDS011;33163;0.000;0.000;2023-03-01T11:05:36;10.07;;;1.60;;
47413;SDS011;33163;0.000;0.000;2023-03-01T11:08:26;1.63;;;1.15;;
47413;SDS011;33163;0.000;0.000;2023-03-01T11:11:03;8.77;;;1.40;;
47413;SDS011;33163;0.000;0.000;2023-03-01T11:13:46;4.65;;;1.23;;
47413;SDS011;33163;0.000;0.000;2023-03-01T11:16:23;5.35;;;1.50;;
47413;SDS011;33163;0.000;0.000;2023-03-01T11:18:56;3.53;;;1.38;;
47413;SDS011;33163;0.000;0.000;2023-03-01T11:21:26;2.95;;;1.45;;
47413;SDS011;33163;0.000;0.000;2023-03-01T11:23:56;7.10;;;1.40;;
47413;SDS011;33163;0.000;0.000;2023-03-01T11:26:26;3.92;;;1.25;;
47413;SDS011;33163;0.000;0.000;2023-03-01T11:28:55;6.78;;;1.42;;
47413;SDS011;33163;0.000;0.000;2023-03-01T11:31:26;8.07;;;1.45;;
47413;SDS011;33163;0.000;0.000;2023-03-01T11:33:55;2.90;;;1.90;;
47413;SDS011;33163;0.000;0.000;2023-03-01T11:36:28;3.50;;;1.60;;
47413;SDS011;33163;0.000;0.000;2023-03-01T11:39:02;4.78;;;1.40;;
47413;SDS011;33163;0.000;0.000;2023-03-01T11:41:38;4.05;;;1.55;;
47413;SDS011;33163;0.000;0.000;2023-03-01T11:44:10;1.55;;;1.33;;
47413;SDS011;33163;0.000;0.000;2023-03-01T11:49:53;4.57;;;1.38;;
47413;SDS011;33163;0.000;0.000;2023-03-01T11:52:36;5.38;;;1.35;;
47413;SDS011;33163;0.000;0.000;2023-03-01T11:55:19;6.60;;;1.30;;
47413;SDS011;33163;0.000;0.000;2023-03-01T11:58:01;3.95;;;2.03;;
47413;SDS011;33163;0.000;0.000;2023-03-01T12:00:42;2.65;;;1.33;;
47413;SDS011;33163;0.000;0.000;2023-03-01T12:03:23;2.80;;;1.45;;
47413;SDS011;33163;0.000;0.000;2023-03-01T12:06:05;1.90;;;1.33;;
47413;SDS011;33163;0.000;0.000;2023-03-01T12:08:54;2.08;;;1.25;;
47413;SDS011;33163;0.000;0.000;2023-03-01T12:11:32;2.75;;;1.58;;
47413;SDS011;33163;0.000;0.000;2023-03-01T12:20:16;4.63;;;1.67;;
47413;SDS011;33163;0.000;0.000;2023-03-01T12:23:10;2.30;;;1.23;;
47413;SDS011;33163;0.000;0.000;2023-03-01T12:25:54;1.25;;;1.02;;
47413;SDS011;33163;0.000;0.000;2023-03-01T12:28:31;4.15;;;1.50;;
47413;SDS011;33163;0.000;0.000;2023-03-01T12:31:29;2.25;;;1.30;;
47413;SDS011;33163;0.000;0.000;2023-03-01T12:34:18;5.88;;;1.42;;
47413;SDS011;33163;0.000;0.000;2023-03-01T12:36:57;3.45;;;1.23;;
47413;SDS011;33163;0.000;0.000;2023-03-01T12:39:42;11.02;;;1.48;;
47413;SDS011;33163;0.000;0.000;2023-03-01T12:42:20;4.18;;;1.50;;
47413;SDS011;33163;0.000;0.000;2023-03-01T12:45:16;5.85;;;1.40;;
47413;SDS011;33163;0.000;0.000;2023-03-01T12:50:57;1.77;;;1.20;;
47413;SDS011;33163;0.000;0.000;2023-03-01T12:53:29;5.18;;;1.40;;
47413;SDS011;33163;0.000;0.000;2023-03-01T12:56:00;1.30;;;1.20;;
47413;SDS011;33163;0.000;0.000;2023-03-01T12:58:33;4.45;;;1.90;;
47413;SDS011;33163;0.000;0.000;2023-03-01T13:01:08;2.75;;;1.13;;
47413;SDS011;33163;0.000;0.000;2023-03-01T13:03:51;4.32;;;1.00;;
47413;SDS011;33163;0.000;0.000;2023-03-01T13:06:29;2.80;;;1.50;;
47413;SDS011;33163;0.000;0.000;2023-03-01T13:09:04;4.22;;;1.48;;
47413;SDS011;33163;0.000;0.000;2023-03-01T13:11:40;2.47;;;1.70;;
47413;SDS011;33163;0.000;0.000;2023-03-01T13:17:24;3.72;;;1.45;;
47413;SDS011;33163;0.000;0.000;2023-03-01T13:19:57;7.00;;;1.40;;
47413;SDS011;33163;0.000;0.000;2023-03-01T13:22:25;8.07;;;1.27;;
47413;SDS011;33163;0.000;0.000;2023-03-01T13:25:10;6.63;;;1.70;;
47413;SDS011;33163;0.000;0.000;2023-03-01T13:27:39;5.82;;;1.48;;
47413;SDS011;33163;0.000;0.000;2023-03-01T13:30:37;6.28;;;1.33;;
47413;SDS011;33163;0.000;0.000;2023-03-01T13:36:11;4.72;;;1.45;;
47413;SDS011;33163;0.000;0.000;2023-03-01T13:38:55;3.00;;;1.40;;
47413;SDS011;33163;0.000;0.000;2023-03-01T13:44:24;4.43;;;1.25;;
47413;SDS011;33163;0.000;0.000;2023-03-01T13:46:57;4.07;;;1.70;;
47413;SDS011;33163;0.000;0.000;2023-03-01T13:49:27;2.20;;;1.17;;
47413;SDS011;33163;0.000;0.000;2023-03-01T13:51:56;1.90;;;1.27;;
47413;SDS011;33163;0.000;0.000;2023-03-01T13:54:25;5.55;;;1.50;;
47413;SDS011;33163;0.000;0.000;2023-03-01T13:56:56;2.10;;;1.13;;
47413;SDS011;33163;0.000;0.000;2023-03-01T13:59:24;4.65;;;1.48;;
47413;SDS011;33163;0.000;0.000;2023-03-01T14:01:55;4.50;;;1.25;;
47413;SDS011;33163;0.000;0.000;2023-03-01T14:04:24;5.00;;;1.10;;
47413;SDS011;33163;0.000;0.000;2023-03-01T14:07:08;5.82;;;1.35;;
47413;SDS011;33163;0.000;0.000;2023-03-01T14:09:36;2.72;;;0.90;;
47413;SDS011;33163;0.000;0.000;2023-03-01T14:12:10;8.98;;;1.50;;
47413;SDS011;33163;0.000;0.000;2023-03-01T14:14:52;8.15;;;1.88;;
47413;SDS011;33163;0.000;0.000;2023-03-01T14:17:31;8.35;;;1.48;;
47413;SDS011;33163;0.000;0.000;2023-03-01T14:20:17;4.13;;;1.60;;
47413;SDS011;33163;0.000;0.000;2023-03-01T14:22:46;5.55;;;1.35;;
47413;SDS011;33163;0.000;0.000;2023-03-01T14:25:19;7.68;;;1.55;;
47413;SDS011;33163;0.000;0.000;2023-03-01T14:27:52;7.70;;;1.33;;
47413;SDS011;33163;0.000;0.000;2023-03-01T14:30:23;6.60;;;1.70;;
47413;SDS011;33163;0.000;0.000;2023-03-01T14:32:53;6.70;;;1.15;;
47413;SDS011;33163;0.000;0.000;2023-03-01T14:35:22;5.15;;;1.42;;
47413;SDS011;33163;0.000;0.000;2023-03-01T14:37:51;6.15;;;1.48;;
47413;SDS011;33163;0.000;0.000;2023-03-01T14:40:22;5.25;;;1.63;;
47413;SDS011;33163;0.000;0.000;2023-03-01T14:42:51;5.60;;;1.67;;
47413;SDS011;33163;0.000;0.000;2023-03-01T14:45:19;5.40;;;2.47;;
47413;SDS011;33163;0.000;0.000;2023-03-01T14:47:46;12.00;;;2.33;;
47413;SDS011;33163;0.000;0.000;2023-03-01T14:50:21;3.60;;;1.70;;
47413;SDS011;33163;0.000;0.000;2023-03-01T14:52:51;5.05;;;1.90;;
47413;SDS011;33163;0.000;0.000;2023-03-01T14:55:20;7.40;;;1.63;;
47413;SDS011;33163;0.000;0.000;2023-03-01T14:57:50;14.45;;;1.95;;
47413;SDS011;33163;0.000;0.000;2023-03-01T15:00:18;11.23;;;1.98;;
47413;SDS011;33163;0.000;0.000;2023-03-01T15:02:47;7.30;;;1.77;;
47413;SDS011;33163;0.000;0.000;2023-03-01T15:05:25;3.10;;;1.60;;
47413;SDS011;33163;0.000;0.000;2023-03-01T15:07:55;5.80;;;2.35;;
47413;SDS011;33163;0.000;0.000;2023-03-01T15:10:25;8.02;;;2.38;;
47413;SDS011;33163;0.000;0.000;2023-03-01T15:12:54;8.27;;;2.05;;
47413;SDS011;33163;0.000;0.000;2023-03-01T15:15:31;6.65;;;2.55;;
47413;SDS011;33163;0.000;0.000;2023-03-01T15:18:00;7.45;;;2.03;;
47413;SDS011;33163;0.000;0.000;2023-03-01T15:20:30;8.20;;;2.05;;
47413;SDS011;33163;0.000;0.000;2023-03-01T15:23:00;10.70;;;2.25;;
47413;SDS011;33163;0.000;0.000;2023-03-01T15:25:28;6.63;;;2.10;;
47413;SDS011;33163;0.000;0.000;2023-03-01T15:27:56;8.38;;;2.00;;
47413;SDS011;33163;0.000;0.000;2023-03-01T15:30:26;6.82;;;2.00;;
47413;SDS011;33163;0.000;0.000;2023-03-01T15:33:19;6.80;;;1.63;;
47413;SDS011;33163;0.000;0.000;2023-03-01T15:35:55;3.25;;;1.50;;
47413;SDS011;33163;0.000;0.000;2023-03-01T15:38:24;4.63;;;1.92;;
47413;SDS011;33163;0.000;0.000;2023-03-01T15:41:04;8.38;;;2.05;;
47413;SDS011;33163;0.000;0.000;2023-03-01T15:43:47;10.18;;;1.80;;
47413;SDS011;33163;0.000;0.000;2023-03-01T15:49:00;4.35;;;1.70;;